Flag for Romania

Past Weather in Bucharest, Romania — Yesterday and Last 2 Weeks

Currently: 32 °F. Clear. (Weather station: Bucharest / Imh, Romania). See more current weather

Past Weather in Bucharest — Graph

°F

Bucharest Temperature Yesterday

Maximum temperature yesterday: 45 °F (at 11:30 am)
Minimum temperature yesterday: 34 °F (at 11:00 pm)
Average temperature yesterday: 39 °F

High & Low Weather Summary for the Past Weeks

 TemperatureHumidityPressure
High57 °F (Jan 23, 3:30 pm)100% (Jan 11, 4:00 am)30.27 "Hg (Jan 11, 4:00 am)
Low12 °F (Jan 19, 4:00 am)48% (Jan 23, 3:30 pm)29.42 "Hg (Jan 25, 6:30 am)
Average32 °F83%29.94 "Hg
* Reported Jan 11 4:00 am — Jan 26 4:00 am, Bucharest. Weather by CustomWeather, © 2021

Note: Actual official high and low records may vary slightly from our data, if they occured in-between our weather recording intervals... More about our weather records

Bucharest Weather History for the Previous 24 Hours

Scroll right to see more
 ConditionsComfort  
Time TempWeatherWind HumidityBarometerVisibility
4:00 am
Tue, Jan 26
32 °FClear.No wind87%29.65 "Hg10 mi
3:30 am32 °FClear.No wind87%29.65 "Hg10 mi
2:30 am32 °FClear.1 mph87%29.68 "Hg10 mi
2:00 am34 °FClear.2 mph81%29.68 "Hg10 mi
1:30 am34 °FClear.2 mph81%29.68 "Hg10 mi
1:00 am34 °FClear.5 mph75%29.68 "Hg10 mi
12:30 am34 °FClear.3 mph75%29.68 "Hg10 mi
12:00 am34 °FClear.5 mph75%29.68 "Hg10 mi
11:30 pm
Mon, Jan 25
34 °FPassing clouds.6 mph75%29.68 "HgN/A
11:00 pm34 °FClear.5 mph75%29.65 "Hg10 mi
10:30 pm36 °FClear.5 mph70%29.68 "Hg10 mi
10:00 pm36 °FClear.9 mph70%29.65 "Hg10 mi
9:30 pm36 °FPassing clouds.12 mph70%29.65 "HgN/A
9:00 pm36 °FClear.12 mph75%29.65 "Hg10 mi
8:30 pm37 °FClear.12 mph70%29.65 "Hg10 mi
8:00 pm37 °FClear.15 mph70%29.62 "Hg10 mi
7:30 pm37 °FClear.14 mph70%29.62 "Hg10 mi
7:00 pm39 °FClear.16 mph65%29.59 "Hg10 mi
6:30 pm39 °FClear.17 mph70%29.59 "Hg10 mi
6:00 pm39 °FPassing clouds.16 mph70%29.56 "HgN/A
5:30 pm39 °FClear.20 mph70%29.53 "Hg10 mi
5:00 pm41 °FSunny.18 mph70%29.53 "Hg10 mi
4:30 pm43 °FPassing clouds.26 mph66%29.50 "HgN/A
4:00 pm43 °FPassing clouds.21 mph66%29.50 "HgN/A
3:00 pm41 °FPassing clouds.25 mph70%29.47 "HgN/A
2:30 pm39 °FPassing clouds.20 mph75%29.47 "HgN/A
2:00 pm39 °FPassing clouds.20 mph81%29.47 "HgN/A
1:30 pm37 °FScattered clouds.18 mph93%29.47 "HgN/A
1:00 pm39 °FLight rain. Mostly cloudy.18 mph93%29.47 "HgN/A
12:30 pm43 °FLight rain. More clouds than sun.21 mph93%29.45 "Hg4 mi
12:00 pm45 °FLight rain. Overcast.8 mph93%29.45 "Hg4 mi
11:30 am45 °FLight rain. Scattered clouds.5 mph93%29.45 "Hg4 mi
11:00 am43 °FLight rain. Fog.2 mph93%29.45 "Hg3 mi
10:30 am41 °FLight rain. Partly sunny.1 mph93%29.42 "Hg4 mi
10:00 am41 °FLight rain. Fog.1 mph93%29.42 "Hg3 mi
9:30 am41 °FLight rain. Fog.1 mph93%29.42 "Hg3 mi
8:30 am39 °FLight rain. Fog.1 mph93%29.42 "Hg3 mi
8:00 am39 °FLight rain. Fog.2 mph93%29.42 "Hg3 mi
7:30 am37 °FLight rain. Fog.2 mph100%29.42 "Hg3 mi
7:00 am39 °FClear.3 mph93%29.42 "Hg5 mi
6:30 am39 °FLight rain. Clear.3 mph93%29.42 "Hg6 mi
6:00 am39 °FLight rain. Clear.3 mph93%29.45 "HgN/A
5:30 am39 °FLight rain. Clear.3 mph93%29.45 "Hg6 mi
5:00 am39 °FLight rain. Clear.5 mph93%29.45 "Hg6 mi
Weather by CustomWeather, © 2021

See weather overview